sensor_id;sensor_type;location;lat;lon;timestamp;temperature;humidity
72646;DHT22;60687;53.876;10.674;2023-09-07T00:05:55;20.00;94.90
72646;DHT22;60687;53.876;10.674;2023-09-07T00:16:03;19.90;94.80
72646;DHT22;60687;53.876;10.674;2023-09-07T00:26:06;19.80;95.00
72646;DHT22;60687;53.876;10.674;2023-09-07T00:36:11;19.70;95.20
72646;DHT22;60687;53.876;10.674;2023-09-07T00:46:14;19.70;95.50
72646;DHT22;60687;53.876;10.674;2023-09-07T00:56:19;19.60;95.40
72646;DHT22;60687;53.876;10.674;2023-09-07T01:06:25;19.50;94.90
72646;DHT22;60687;53.876;10.674;2023-09-07T01:16:31;19.30;95.70
72646;DHT22;60687;53.876;10.674;2023-09-07T01:26:39;19.30;95.40
72646;DHT22;60687;53.876;10.674;2023-09-07T01:36:43;19.20;95.80
72646;DHT22;60687;53.876;10.674;2023-09-07T01:46:47;19.10;95.90
72646;DHT22;60687;53.876;10.674;2023-09-07T01:56:51;19.10;95.70
72646;DHT22;60687;53.876;10.674;2023-09-07T02:06:54;19.00;95.70
72646;DHT22;60687;53.876;10.674;2023-09-07T02:16:57;18.90;95.70
72646;DHT22;60687;53.876;10.674;2023-09-07T02:27:01;18.90;95.60
72646;DHT22;60687;53.876;10.674;2023-09-07T02:37:04;18.80;95.60
72646;DHT22;60687;53.876;10.674;2023-09-07T02:47:08;18.70;95.80
72646;DHT22;60687;53.876;10.674;2023-09-07T02:57:11;18.60;95.90
72646;DHT22;60687;53.876;10.674;2023-09-07T03:07:15;18.60;95.80
72646;DHT22;60687;53.876;10.674;2023-09-07T03:17:18;18.50;95.70
72646;DHT22;60687;53.876;10.674;2023-09-07T03:27:23;18.40;96.10
72646;DHT22;60687;53.876;10.674;2023-09-07T03:37:26;18.30;96.20
72646;DHT22;60687;53.876;10.674;2023-09-07T03:47:30;18.20;96.10
72646;DHT22;60687;53.876;10.674;2023-09-07T03:57:33;18.20;96.30
72646;DHT22;60687;53.876;10.674;2023-09-07T04:07:37;18.10;96.50
72646;DHT22;60687;53.876;10.674;2023-09-07T04:17:40;18.10;96.50
72646;DHT22;60687;53.876;10.674;2023-09-07T04:27:44;18.10;96.30
72646;DHT22;60687;53.876;10.674;2023-09-07T04:37:47;18.00;96.20
72646;DHT22;60687;53.876;10.674;2023-09-07T04:47:51;18.00;96.50
72646;DHT22;60687;53.876;10.674;2023-09-07T04:57:54;18.00;96.50
72646;DHT22;60687;53.876;10.674;2023-09-07T05:07:59;17.90;97.30
72646;DHT22;60687;53.876;10.674;2023-09-07T05:18:02;17.90;97.60
72646;DHT22;60687;53.876;10.674;2023-09-07T05:28:06;17.80;98.10
72646;DHT22;60687;53.876;10.674;2023-09-07T05:38:09;17.70;98.50
72646;DHT22;60687;53.876;10.674;2023-09-07T05:48:14;17.80;98.40
72646;DHT22;60687;53.876;10.674;2023-09-07T05:58:18;17.80;98.50
72646;DHT22;60687;53.876;10.674;2023-09-07T06:08:22;17.90;99.20
72646;DHT22;60687;53.876;10.674;2023-09-07T06:18:25;18.00;98.80
72646;DHT22;60687;53.876;10.674;2023-09-07T06:28:29;18.10;98.90
72646;DHT22;60687;53.876;10.674;2023-09-07T06:38:32;18.30;98.60
72646;DHT22;60687;53.876;10.674;2023-09-07T06:48:36;18.50;98.40
72646;DHT22;60687;53.876;10.674;2023-09-07T06:58:39;18.70;97.70
72646;DHT22;60687;53.876;10.674;2023-09-07T07:08:43;18.90;97.60
72646;DHT22;60687;53.876;10.674;2023-09-07T07:18:46;19.20;96.30
72646;DHT22;60687;53.876;10.674;2023-09-07T07:28:51;19.50;96.70
72646;DHT22;60687;53.876;10.674;2023-09-07T07:38:54;19.80;95.00
72646;DHT22;60687;53.876;10.674;2023-09-07T07:48:58;20.10;93.90
72646;DHT22;60687;53.876;10.674;2023-09-07T07:59:01;20.40;93.10
72646;DHT22;60687;53.876;10.674;2023-09-07T08:09:06;20.70;92.70
72646;DHT22;60687;53.876;10.674;2023-09-07T08:19:09;20.90;91.60
72646;DHT22;60687;53.876;10.674;2023-09-07T08:29:14;21.20;90.60
72646;DHT22;60687;53.876;10.674;2023-09-07T08:39:17;21.60;90.80
72646;DHT22;60687;53.876;10.674;2023-09-07T08:49:21;21.90;87.50
72646;DHT22;60687;53.876;10.674;2023-09-07T08:59:25;22.30;87.00
72646;DHT22;60687;53.876;10.674;2023-09-07T09:09:30;22.60;85.10
72646;DHT22;60687;53.876;10.674;2023-09-07T09:19:33;23.00;83.40
72646;DHT22;60687;53.876;10.674;2023-09-07T09:29:40;23.30;80.10
72646;DHT22;60687;53.876;10.674;2023-09-07T09:39:43;23.70;80.60
72646;DHT22;60687;53.876;10.674;2023-09-07T09:49:48;24.00;78.90
72646;DHT22;60687;53.876;10.674;2023-09-07T09:59:51;24.30;77.00
72646;DHT22;60687;53.876;10.674;2023-09-07T10:09:56;24.60;73.90
72646;DHT22;60687;53.876;10.674;2023-09-07T10:20:02;24.90;74.00
72646;DHT22;60687;53.876;10.674;2023-09-07T10:30:13;25.20;73.60
72646;DHT22;60687;53.876;10.674;2023-09-07T10:40:20;25.50;72.20
72646;DHT22;60687;53.876;10.674;2023-09-07T10:50:24;25.80;73.80
72646;DHT22;60687;53.876;10.674;2023-09-07T11:00:27;25.90;71.80
72646;DHT22;60687;53.876;10.674;2023-09-07T11:10:33;26.00;72.70
72646;DHT22;60687;53.876;10.674;2023-09-07T11:20:37;26.20;72.20
72646;DHT22;60687;53.876;10.674;2023-09-07T11:30:50;26.20;70.60
72646;DHT22;60687;53.876;10.674;2023-09-07T11:40:53;26.10;67.60
72646;DHT22;60687;53.876;10.674;2023-09-07T11:50:58;26.10;70.00
72646;DHT22;60687;53.876;10.674;2023-09-07T12:51:20;26.10;69.60
72646;DHT22;60687;53.876;10.674;2023-09-07T13:01:22;25.80;67.50
72646;DHT22;60687;53.876;10.674;2023-09-07T13:11:26;25.70;68.90
72646;DHT22;60687;53.876;10.674;2023-09-07T18:13:19;25.60;69.90
72646;DHT22;60687;53.876;10.674;2023-09-07T18:23:23;22.10;91.50
72646;DHT22;60687;53.876;10.674;2023-09-07T18:33:29;21.80;91.90
72646;DHT22;60687;53.876;10.674;2023-09-07T18:43:33;21.70;91.60
72646;DHT22;60687;53.876;10.674;2023-09-07T18:53:37;21.60;92.30
72646;DHT22;60687;53.876;10.674;2023-09-07T19:03:46;21.50;92.40
72646;DHT22;60687;53.876;10.674;2023-09-07T19:13:50;21.40;93.30
72646;DHT22;60687;53.876;10.674;2023-09-07T19:23:54;21.30;92.90
72646;DHT22;60687;53.876;10.674;2023-09-07T19:33:59;21.20;93.60
72646;DHT22;60687;53.876;10.674;2023-09-07T19:44:02;21.10;94.00
72646;DHT22;60687;53.876;10.674;2023-09-07T19:54:05;21.00;94.20
72646;DHT22;60687;53.876;10.674;2023-09-07T20:04:12;20.90;94.80
72646;DHT22;60687;53.876;10.674;2023-09-07T20:14:16;20.80;94.40
72646;DHT22;60687;53.876;10.674;2023-09-07T20:24:19;20.80;94.30
72646;DHT22;60687;53.876;10.674;2023-09-07T20:34:23;20.70;94.30
72646;DHT22;60687;53.876;10.674;2023-09-07T20:44:26;20.60;94.10
72646;DHT22;60687;53.876;10.674;2023-09-07T20:54:30;20.50;94.50
72646;DHT22;60687;53.876;10.674;2023-09-07T21:04:33;20.50;94.50
72646;DHT22;60687;53.876;10.674;2023-09-07T21:14:36;20.40;94.40
72646;DHT22;60687;53.876;10.674;2023-09-07T21:24:39;20.30;94.40
72646;DHT22;60687;53.876;10.674;2023-09-07T21:34:44;20.20;94.20
72646;DHT22;60687;53.876;10.674;2023-09-07T21:44:47;20.10;94.00
72646;DHT22;60687;53.876;10.674;2023-09-07T21:54:51;20.10;93.80
72646;DHT22;60687;53.876;10.674;2023-09-07T22:04:55;20.00;93.60
72646;DHT22;60687;53.876;10.674;2023-09-07T22:14:59;20.00;93.30
72646;DHT22;60687;53.876;10.674;2023-09-07T22:25:02;19.90;93.20
72646;DHT22;60687;53.876;10.674;2023-09-07T22:35:08;19.80;93.00
72646;DHT22;60687;53.876;10.674;2023-09-07T22:45:11;19.80;93.00
72646;DHT22;60687;53.876;10.674;2023-09-07T22:55:37;19.70;92.70
72646;DHT22;60687;53.876;10.674;2023-09-07T23:05:41;19.60;92.70
72646;DHT22;60687;53.876;10.674;2023-09-07T23:15:45;19.60;92.40
72646;DHT22;60687;53.876;10.674;2023-09-07T23:25:48;19.50;92.30
72646;DHT22;60687;53.876;10.674;2023-09-07T23:35:52;19.40;92.40
72646;DHT22;60687;53.876;10.674;2023-09-07T23:45:55;19.40;92.70
72646;DHT22;60687;53.876;10.674;2023-09-07T23:55:58;19.30;92.10
